createdAt,value
2018-03-08T00:01:11.634Z,7.19
2018-03-08T00:03:39.901Z,7.14
2018-03-08T00:06:08.586Z,7.14
2018-03-08T00:08:36.967Z,7.23
2018-03-08T00:11:05.673Z,7.14
2018-03-08T00:13:33.979Z,6.99
2018-03-08T00:16:02.386Z,7.02
2018-03-08T00:18:30.944Z,7.10
2018-03-08T00:20:59.248Z,7.15
2018-03-08T00:23:27.683Z,7.04
2018-03-08T00:25:56.153Z,7.20
2018-03-08T00:28:24.470Z,7.16
2018-03-08T00:30:52.792Z,7.17
2018-03-08T00:33:21.541Z,7.13
2018-03-08T00:35:49.888Z,7.07
2018-03-08T00:38:18.133Z,7.20
2018-03-08T00:40:46.366Z,7.34
2018-03-08T00:43:14.595Z,7.18
2018-03-08T00:45:43.167Z,7.24
2018-03-08T00:48:11.767Z,7.16
2018-03-08T00:50:40.226Z,7.16
2018-03-08T00:53:08.720Z,7.18
2018-03-08T00:55:37.363Z,7.21
2018-03-08T00:58:05.780Z,7.26
2018-03-08T01:00:34.025Z,7.24
2018-03-08T01:03:02.368Z,7.12
2018-03-08T01:05:30.926Z,7.32
2018-03-08T01:07:59.106Z,7.07
2018-03-08T01:10:28.144Z,7.17
2018-03-08T01:12:56.469Z,7.18
2018-03-08T01:15:24.848Z,7.10
2018-03-08T01:17:53.002Z,7.20
2018-03-08T01:20:21.472Z,7.19
2018-03-08T01:22:50.006Z,7.12
2018-03-08T01:25:18.204Z,7.09
2018-03-08T01:27:46.730Z,6.97
2018-03-08T01:30:15.018Z,6.94
2018-03-08T01:32:43.358Z,7.01
2018-03-08T01:35:11.586Z,7.02
2018-03-08T01:37:40.060Z,6.99
2018-03-08T01:40:08.503Z,7.01
2018-03-08T01:42:36.818Z,6.88
2018-03-08T01:45:05.444Z,7.05
2018-03-08T01:47:33.935Z,6.98
2018-03-08T01:50:02.201Z,6.93
2018-03-08T01:52:30.572Z,7.00
2018-03-08T01:54:59.284Z,7.12
2018-03-08T01:57:27.815Z,7.23
2018-03-08T01:59:56.103Z,7.20
2018-03-08T02:02:24.889Z,7.01
2018-03-08T02:04:53.370Z,6.98
2018-03-08T02:07:21.637Z,6.97
2018-03-08T02:09:50.140Z,6.95
2018-03-08T02:12:18.563Z,6.91
2018-03-08T02:14:46.932Z,7.09
2018-03-08T02:17:15.154Z,6.98
2018-03-08T02:19:44.003Z,7.02
2018-03-08T02:22:12.388Z,7.07
2018-03-08T02:24:40.617Z,7.07
2018-03-08T02:27:09.143Z,7.03
2018-03-08T02:29:37.394Z,7.14
2018-03-08T02:32:05.746Z,7.17
2018-03-08T02:34:33.893Z,7.14
2018-03-08T02:37:02.182Z,6.94
2018-03-08T02:39:30.403Z,6.91
2018-03-08T02:41:58.679Z,6.94
2018-03-08T02:44:27.172Z,7.02
2018-03-08T02:46:55.375Z,7.10
2018-03-08T02:49:23.918Z,6.98
2018-03-08T02:51:52.400Z,6.94
2018-03-08T02:54:20.842Z,7.14
2018-03-08T02:56:49.058Z,7.02
2018-03-08T02:59:17.461Z,6.88
2018-03-08T03:01:45.708Z,6.84
2018-03-08T03:04:13.876Z,6.64
2018-03-08T03:06:42.157Z,6.57
2018-03-08T03:09:10.512Z,6.64
2018-03-08T03:11:38.745Z,6.80
2018-03-08T03:14:07.039Z,6.79
2018-03-08T03:16:35.434Z,6.81
2018-03-08T03:19:03.818Z,6.81
2018-03-08T03:21:32.078Z,6.52
2018-03-08T03:24:00.870Z,6.64
2018-03-08T03:26:29.975Z,6.68
2018-03-08T03:28:58.215Z,6.62
2018-03-08T03:31:26.650Z,6.79
2018-03-08T03:33:55.096Z,6.69
2018-03-08T03:36:23.387Z,6.70
2018-03-08T03:38:52.323Z,6.55
2018-03-08T03:41:20.900Z,6.43
2018-03-08T03:43:49.354Z,6.52
2018-03-08T03:46:17.994Z,6.50
2018-03-08T03:48:46.620Z,6.51
2018-03-08T03:51:15.065Z,6.44
2018-03-08T03:53:43.671Z,6.49
2018-03-08T03:56:12.432Z,6.54
2018-03-08T03:58:40.656Z,6.57
2018-03-08T04:01:09.322Z,6.38
2018-03-08T04:03:37.616Z,6.44
2018-03-08T04:06:06.641Z,6.35
2018-03-08T04:08:34.774Z,6.34
2018-03-08T04:11:03.356Z,6.25
2018-03-08T04:13:32.357Z,6.21
2018-03-08T04:16:00.857Z,6.20
2018-03-08T04:18:29.256Z,6.23
2018-03-08T04:20:58.007Z,6.11
2018-03-08T04:23:26.515Z,6.17
2018-03-08T04:25:54.645Z,6.10
2018-03-08T04:28:23.248Z,6.06
2018-03-08T04:30:51.987Z,6.02
2018-03-08T04:33:20.835Z,5.90
2018-03-08T04:35:49.455Z,6.04
2018-03-08T04:38:17.746Z,5.88
2018-03-08T04:40:45.985Z,5.86
2018-03-08T04:43:14.185Z,5.79
2018-03-08T04:45:42.467Z,5.74
2018-03-08T04:48:13.200Z,5.71
2018-03-08T04:50:42.489Z,5.68
2018-03-08T04:53:12.586Z,5.75
2018-03-08T04:55:41.032Z,5.69
2018-03-08T04:58:09.530Z,5.71
2018-03-08T05:00:38.248Z,5.83
2018-03-08T05:03:06.885Z,5.59
2018-03-08T05:05:35.119Z,5.55
2018-03-08T05:08:03.944Z,5.54
2018-03-08T05:10:32.175Z,5.79
2018-03-08T05:13:00.694Z,5.56
2018-03-08T05:15:29.134Z,5.46
2018-03-08T05:17:57.326Z,5.33
2018-03-08T05:20:26.248Z,5.47
2018-03-08T05:22:55.210Z,5.36
2018-03-08T05:25:23.666Z,5.38
2018-03-08T05:27:52.878Z,5.41
2018-03-08T05:30:21.044Z,5.24
2018-03-08T05:32:49.164Z,5.32
2018-03-08T05:35:17.275Z,5.17
2018-03-08T05:37:46.440Z,5.31
2018-03-08T05:40:14.950Z,5.25
2018-03-08T05:42:43.080Z,5.50
2018-03-08T05:45:19.058Z,5.38
2018-03-08T05:47:49.132Z,5.30
2018-03-08T05:50:17.897Z,5.65
2018-03-08T05:52:46.505Z,5.33
2018-03-08T05:55:14.984Z,5.30
2018-03-08T05:57:43.599Z,5.26
2018-03-08T06:00:11.764Z,5.21
2018-03-08T06:02:40.101Z,5.19
2018-03-08T06:05:08.569Z,5.56
2018-03-08T06:07:42.083Z,5.24
2018-03-08T06:10:10.248Z,5.17
2018-03-08T06:12:38.362Z,5.25
2018-03-08T06:15:06.480Z,5.29
2018-03-08T06:17:34.555Z,5.44
2018-03-08T06:20:02.651Z,5.19
2018-03-08T06:22:30.761Z,5.13
2018-03-08T06:24:58.890Z,5.12
2018-03-08T06:27:26.990Z,5.27
2018-03-08T06:29:55.098Z,4.98
2018-03-08T06:32:23.207Z,4.99
2018-03-08T06:34:52.668Z,4.97
2018-03-08T06:37:21.653Z,5.07
2018-03-08T06:39:49.805Z,5.12
2018-03-08T06:42:18.196Z,5.02
2018-03-08T06:44:47.002Z,5.00
2018-03-08T06:47:15.701Z,5.37
2018-03-08T06:49:43.842Z,5.41
2018-03-08T06:52:12.629Z,5.50
2018-03-08T06:54:41.070Z,5.93
2018-03-08T06:57:10.304Z,5.91
2018-03-08T06:59:39.900Z,5.99
2018-03-08T07:02:08.007Z,5.94
2018-03-08T07:04:36.109Z,6.00
2018-03-08T07:07:04.214Z,5.99
2018-03-08T07:09:32.322Z,6.06
2018-03-08T07:12:00.431Z,6.43
2018-03-08T07:14:28.533Z,6.53
2018-03-08T07:16:56.687Z,6.68
2018-03-08T07:19:24.796Z,7.71
2018-03-08T07:21:52.923Z,7.53
2018-03-08T07:24:21.029Z,7.30
2018-03-08T07:26:49.163Z,7.12
2018-03-08T07:29:17.274Z,7.40
2018-03-08T07:31:45.380Z,7.46
2018-03-08T07:34:13.479Z,7.98
2018-03-08T07:36:41.582Z,7.78
2018-03-08T07:39:09.700Z,7.93
2018-03-08T07:41:37.816Z,7.55
2018-03-08T07:44:05.918Z,7.81
2018-03-08T07:46:34.028Z,7.76
2018-03-08T07:49:02.149Z,8.08
2018-03-08T07:51:30.259Z,7.89
2018-03-08T07:53:58.363Z,7.68
2018-03-08T07:56:26.468Z,7.58
2018-03-08T07:58:54.565Z,7.44
2018-03-08T08:01:22.686Z,7.56
2018-03-08T08:03:50.779Z,7.69
2018-03-08T08:09:27.856Z,8.15
2018-03-08T08:11:55.963Z,8.41
2018-03-08T08:14:24.055Z,7.99
2018-03-08T08:16:52.171Z,7.90
2018-03-08T08:19:20.263Z,7.89
2018-03-08T08:21:48.358Z,8.06
2018-03-08T08:24:16.475Z,8.45
2018-03-08T08:26:44.615Z,9.02
2018-03-08T08:29:12.690Z,9.05
2018-03-08T08:31:40.811Z,8.54
2018-03-08T08:34:08.927Z,8.23
2018-03-08T08:36:37.047Z,8.17
2018-03-08T08:39:05.322Z,7.88
2018-03-08T08:41:33.729Z,7.98
2018-03-08T08:44:01.842Z,7.83
2018-03-08T08:46:29.980Z,8.02
2018-03-08T08:48:58.080Z,8.43
2018-03-08T08:51:26.207Z,7.94
2018-03-08T08:53:54.308Z,8.17
2018-03-08T08:56:22.445Z,8.30
2018-03-08T08:58:50.583Z,8.45
2018-03-08T09:01:18.683Z,8.66
2018-03-08T09:03:46.782Z,8.53
2018-03-08T09:06:14.889Z,8.67
2018-03-08T09:08:42.982Z,8.61
2018-03-08T09:11:11.088Z,8.28
2018-03-08T09:13:39.193Z,8.22
2018-03-08T09:16:07.320Z,8.43
2018-03-08T09:18:35.434Z,8.55
2018-03-08T09:21:03.622Z,8.34
2018-03-08T09:23:31.660Z,8.34
2018-03-08T09:25:59.774Z,8.31
2018-03-08T09:28:27.890Z,8.23
2018-03-08T09:30:56.013Z,8.49
2018-03-08T09:33:24.145Z,8.81
2018-03-08T09:35:52.263Z,8.88
2018-03-08T09:38:20.360Z,9.32
2018-03-08T09:40:48.466Z,9.37
2018-03-08T09:43:16.589Z,9.17
2018-03-08T09:45:44.689Z,9.06
2018-03-08T09:48:12.810Z,9.32
2018-03-08T09:50:40.930Z,9.33
2018-03-08T09:53:09.218Z,9.51
2018-03-08T09:55:37.351Z,10.04
2018-03-08T09:58:05.467Z,9.82
2018-03-08T10:00:33.560Z,9.44
2018-03-08T10:03:01.664Z,9.88
2018-03-08T10:05:29.832Z,9.92
2018-03-08T10:07:57.941Z,9.68
2018-03-08T10:10:26.054Z,9.48
2018-03-08T10:12:54.212Z,9.37
2018-03-08T10:15:22.299Z,9.28
2018-03-08T10:17:50.412Z,9.28
2018-03-08T10:20:18.516Z,9.20
2018-03-08T10:22:46.697Z,9.30
2018-03-08T10:25:14.747Z,9.06
2018-03-08T10:27:42.852Z,8.96
2018-03-08T10:30:10.976Z,9.09
2018-03-08T10:32:39.105Z,9.14
2018-03-08T10:35:07.221Z,9.24
2018-03-08T10:37:35.367Z,9.31
2018-03-08T10:40:03.475Z,9.29
2018-03-08T10:44:59.712Z,9.50
2018-03-08T10:47:27.836Z,9.50
2018-03-08T10:49:55.967Z,9.78
2018-03-08T10:52:24.070Z,9.63
2018-03-08T10:54:52.187Z,9.76
2018-03-08T10:57:20.322Z,9.86
2018-03-08T10:59:48.447Z,10.34
2018-03-08T11:02:17.271Z,9.97
2018-03-08T11:04:50.933Z,9.88
2018-03-08T11:07:19.064Z,9.90
2018-03-08T11:09:50.293Z,9.86
2018-03-08T11:12:18.425Z,9.76
2018-03-08T11:14:46.550Z,9.72
2018-03-08T11:17:14.639Z,9.76
2018-03-08T11:19:42.767Z,9.61
2018-03-08T11:22:10.887Z,9.63
2018-03-08T11:24:39.006Z,9.58
2018-03-08T11:27:07.129Z,9.68
2018-03-08T11:29:35.256Z,9.74
2018-03-08T11:32:03.371Z,9.75
2018-03-08T11:34:31.456Z,9.64
2018-03-08T11:36:59.622Z,9.79
2018-03-08T11:39:27.703Z,9.78
2018-03-08T11:41:55.795Z,9.73
2018-03-08T11:44:23.934Z,9.67
2018-03-08T11:46:52.035Z,9.69
2018-03-08T11:49:21.086Z,9.76
2018-03-08T11:51:48.720Z,9.81
2018-03-08T11:54:16.844Z,9.79
2018-03-08T11:56:45.082Z,9.68
2018-03-08T11:59:13.271Z,9.64
2018-03-08T12:01:41.385Z,9.57
2018-03-08T12:04:09.506Z,9.63
2018-03-08T12:06:37.612Z,9.54
2018-03-08T12:09:05.724Z,9.57
2018-03-08T12:11:33.840Z,9.58
2018-03-08T12:14:01.941Z,9.50
2018-03-08T12:16:30.063Z,9.32
2018-03-08T12:18:58.164Z,9.22
2018-03-08T12:21:26.265Z,9.17
2018-03-08T12:23:54.358Z,9.21
2018-03-08T12:26:22.487Z,9.13
2018-03-08T12:28:50.609Z,9.07
2018-03-08T12:31:18.706Z,8.96
2018-03-08T12:33:46.803Z,9.17
2018-03-08T12:36:15.086Z,9.01
2018-03-08T12:38:43.199Z,8.93
2018-03-08T12:41:11.384Z,8.98
2018-03-08T12:43:42.637Z,8.94
2018-03-08T12:46:10.737Z,8.89
2018-03-08T12:48:38.884Z,8.99
2018-03-08T12:51:06.969Z,9.13
2018-03-08T12:53:35.095Z,8.88
2018-03-08T12:56:03.252Z,8.86
2018-03-08T12:58:31.295Z,8.74
2018-03-08T13:00:59.390Z,8.66
2018-03-08T13:03:27.492Z,8.71
2018-03-08T13:05:55.611Z,8.70
2018-03-08T13:08:23.717Z,8.76
2018-03-08T13:10:51.851Z,8.86
2018-03-08T13:13:20.290Z,8.72
2018-03-08T13:15:48.387Z,8.67
2018-03-08T13:18:16.494Z,8.78
2018-03-08T13:20:44.599Z,8.65
2018-03-08T13:23:12.707Z,8.61
2018-03-08T13:25:40.819Z,8.70
2018-03-08T13:28:08.931Z,8.87
2018-03-08T13:30:37.047Z,8.87
2018-03-08T13:33:05.143Z,8.85
2018-03-08T13:35:33.243Z,8.87
2018-03-08T13:38:01.477Z,8.81
2018-03-08T13:40:29.561Z,8.85
2018-03-08T13:42:57.678Z,10.23
2018-03-08T13:45:25.780Z,9.13
2018-03-08T13:47:53.922Z,8.89
2018-03-08T13:50:22.021Z,8.96
2018-03-08T13:52:50.144Z,8.92
2018-03-08T13:55:18.237Z,8.86
2018-03-08T13:57:46.366Z,8.85
2018-03-08T14:00:14.429Z,8.66
2018-03-08T14:02:42.534Z,8.66
2018-03-08T14:05:10.636Z,8.50
2018-03-08T14:07:38.738Z,8.57
2018-03-08T14:10:06.873Z,8.43
2018-03-08T14:12:35.005Z,8.53
2018-03-08T14:15:03.096Z,8.39
2018-03-08T14:17:31.220Z,8.29
2018-03-08T14:19:59.316Z,8.47
2018-03-08T14:22:27.429Z,8.41
2018-03-08T14:24:55.556Z,8.26
2018-03-08T14:27:23.652Z,8.17
2018-03-08T14:29:51.755Z,8.22
2018-03-08T14:32:19.869Z,8.16
2018-03-08T14:34:47.971Z,8.29
2018-03-08T14:37:16.098Z,8.24
2018-03-08T14:39:44.199Z,8.11
2018-03-08T14:42:12.306Z,8.32
2018-03-08T14:44:40.410Z,8.10
2018-03-08T14:47:08.525Z,8.16
2018-03-08T14:49:36.637Z,8.27
2018-03-08T14:52:04.749Z,8.41
2018-03-08T14:54:32.869Z,8.33
2018-03-08T14:57:01.002Z,8.34
2018-03-08T14:59:29.110Z,8.46
2018-03-08T15:01:57.230Z,8.45
2018-03-08T15:04:25.321Z,8.33
2018-03-08T15:06:53.441Z,8.33
2018-03-08T15:09:21.538Z,8.36
2018-03-08T15:11:49.640Z,8.33
2018-03-08T15:14:17.748Z,8.30
2018-03-08T15:16:45.858Z,8.42
2018-03-08T15:19:13.973Z,8.52
2018-03-08T15:21:42.980Z,8.33
2018-03-08T15:24:11.098Z,8.25
2018-03-08T15:26:39.223Z,8.28
2018-03-08T15:29:07.319Z,8.30
2018-03-08T15:31:35.481Z,8.18
2018-03-08T15:34:03.595Z,8.25
2018-03-08T15:36:31.712Z,8.22
2018-03-08T15:38:59.814Z,8.27
2018-03-08T15:41:27.900Z,8.24
2018-03-08T15:43:56.027Z,8.27
2018-03-08T15:46:24.152Z,8.31
2018-03-08T15:48:52.248Z,8.45
2018-03-08T15:51:20.371Z,8.44
2018-03-08T15:53:48.480Z,8.31
2018-03-08T15:56:16.592Z,8.26
2018-03-08T15:58:44.685Z,8.36
2018-03-08T16:01:12.792Z,8.38
2018-03-08T16:03:40.898Z,8.68
2018-03-08T16:06:12.699Z,8.67
2018-03-08T16:08:52.684Z,8.66
2018-03-08T16:11:20.793Z,8.81
2018-03-08T16:13:48.905Z,8.85
2018-03-08T16:16:17.029Z,9.06
2018-03-08T16:18:46.020Z,8.77
2018-03-08T16:21:14.143Z,8.94
2018-03-08T16:23:42.270Z,9.03
2018-03-08T16:26:10.357Z,8.77
2018-03-08T16:28:38.460Z,8.69
2018-03-08T16:31:06.570Z,8.75
2018-03-08T16:33:34.696Z,8.66
2018-03-08T16:36:02.854Z,8.69
2018-03-08T16:38:30.934Z,8.44
2018-03-08T16:40:59.044Z,8.54
2018-03-08T16:43:27.160Z,8.34
2018-03-08T16:45:55.276Z,8.32
2018-03-08T16:48:23.437Z,8.27
2018-03-08T16:50:51.510Z,8.24
2018-03-08T16:53:19.656Z,8.11
2018-03-08T16:55:47.729Z,8.20
2018-03-08T16:58:15.848Z,8.10
2018-03-08T17:00:43.965Z,8.12
2018-03-08T17:03:12.067Z,8.00
2018-03-08T17:05:40.192Z,7.90
2018-03-08T17:08:08.355Z,7.94
2018-03-08T17:10:36.448Z,7.94
2018-03-08T17:13:04.577Z,7.96
2018-03-08T17:15:32.725Z,7.93
2018-03-08T17:18:00.865Z,7.84
2018-03-08T17:20:28.968Z,7.69
2018-03-08T17:22:57.065Z,7.70
2018-03-08T17:25:25.185Z,7.83
2018-03-08T17:27:53.282Z,7.75
2018-03-08T17:30:21.394Z,7.71
2018-03-08T17:32:49.503Z,7.68
2018-03-08T17:35:17.622Z,7.62
2018-03-08T17:37:45.729Z,7.76
2018-03-08T17:40:13.821Z,7.83
2018-03-08T17:42:41.931Z,7.67
2018-03-08T17:45:10.039Z,7.44
2018-03-08T17:47:38.145Z,7.35
2018-03-08T17:50:06.264Z,7.34
2018-03-08T17:52:35.876Z,7.22
2018-03-08T17:55:04.408Z,7.36
2018-03-08T17:57:34.212Z,7.32
2018-03-08T18:00:03.184Z,7.22
2018-03-08T18:02:32.315Z,7.33
2018-03-08T18:05:00.794Z,7.25
2018-03-08T18:07:29.327Z,7.32
2018-03-08T18:09:57.941Z,7.34
2018-03-08T18:12:26.204Z,7.27
2018-03-08T18:14:54.865Z,7.25
2018-03-08T18:17:23.600Z,7.30
2018-03-08T18:19:52.069Z,7.15
2018-03-08T18:22:20.726Z,7.18
2018-03-08T18:24:48.981Z,7.29
2018-03-08T18:27:17.375Z,7.02
2018-03-08T18:29:45.793Z,7.17
2018-03-08T18:32:14.569Z,7.03
2018-03-08T18:34:43.004Z,6.99
2018-03-08T18:37:11.679Z,7.01
2018-03-08T18:39:40.281Z,7.10
2018-03-08T18:42:08.829Z,6.96
2018-03-08T18:44:37.184Z,7.18
2018-03-08T18:47:06.503Z,6.52
2018-03-08T18:49:36.083Z,5.53
2018-03-08T18:52:04.727Z,5.20
2018-03-08T18:54:33.200Z,5.31
2018-03-08T18:57:01.547Z,5.56
2018-03-08T18:59:30.243Z,5.68
2018-03-08T19:01:58.566Z,5.78
2018-03-08T19:04:28.346Z,5.76
2018-03-08T19:06:57.179Z,5.74
2018-03-08T19:09:26.441Z,5.85
2018-03-08T19:11:54.919Z,5.92
2018-03-08T19:14:23.154Z,6.08
2018-03-08T19:16:51.395Z,5.92
2018-03-08T19:19:20.188Z,5.92
2018-03-08T19:21:48.648Z,5.93
2018-03-08T19:24:19.717Z,5.88
2018-03-08T19:26:49.036Z,5.84
2018-03-08T19:29:18.471Z,6.00
2018-03-08T19:31:47.353Z,5.96
2018-03-08T19:34:15.951Z,6.05
2018-03-08T19:36:46.752Z,6.00
2018-03-08T19:39:15.533Z,6.01
2018-03-08T19:41:43.922Z,5.89
2018-03-08T19:44:12.269Z,5.99
2018-03-08T19:46:40.746Z,6.03
2018-03-08T19:49:08.876Z,6.02
2018-03-08T19:51:37.399Z,5.91
2018-03-08T19:54:06.159Z,6.01
2018-03-08T19:56:35.253Z,5.96
2018-03-08T19:59:03.973Z,6.04
2018-03-08T20:01:32.764Z,6.00
2018-03-08T20:04:01.781Z,6.00
2018-03-08T20:06:31.922Z,6.09
2018-03-08T20:09:00.573Z,5.99
2018-03-08T20:11:28.827Z,6.03
2018-03-08T20:13:57.976Z,6.08
2018-03-08T20:16:26.724Z,6.15
2018-03-08T20:18:55.081Z,6.18
2018-03-08T20:21:24.176Z,6.10
2018-03-08T20:23:52.920Z,6.13
2018-03-08T20:26:21.556Z,6.12
2018-03-08T20:28:50.682Z,6.12
2018-03-08T20:31:19.565Z,6.19
2018-03-08T20:33:48.929Z,6.30
2018-03-08T20:36:17.623Z,6.23
2018-03-08T20:38:47.307Z,6.22
2018-03-08T20:41:16.382Z,6.16
2018-03-08T20:43:45.156Z,6.20
2018-03-08T20:46:13.671Z,6.25
2018-03-08T20:48:42.006Z,6.24
2018-03-08T20:51:10.589Z,6.22
2018-03-08T20:53:39.382Z,6.10
2018-03-08T20:56:07.800Z,6.08
2018-03-08T20:58:36.981Z,6.09
2018-03-08T21:01:06.159Z,6.12
2018-03-08T21:03:34.863Z,6.12
2018-03-08T21:06:03.728Z,6.00
2018-03-08T21:08:31.996Z,5.99
2018-03-08T21:11:00.261Z,5.93
2018-03-08T21:13:28.416Z,5.94
2018-03-08T21:15:56.624Z,6.03
2018-03-08T21:18:24.836Z,5.99
2018-03-08T21:20:53.630Z,5.92
2018-03-08T21:23:22.005Z,5.84
2018-03-08T21:25:51.169Z,5.90
2018-03-08T21:28:19.353Z,5.90
2018-03-08T21:30:47.698Z,5.82
2018-03-08T21:33:15.833Z,5.81
2018-03-08T21:35:44.133Z,5.92
2018-03-08T21:38:12.968Z,5.86
2018-03-08T21:40:42.570Z,5.77
2018-03-08T21:43:11.663Z,5.76
2018-03-08T21:45:41.016Z,5.88
2018-03-08T21:48:10.315Z,5.94
2018-03-08T21:50:39.322Z,5.88
2018-03-08T21:53:08.923Z,5.99
2018-03-08T21:55:37.830Z,6.02
2018-03-08T21:58:10.502Z,5.89
2018-03-08T22:00:39.041Z,5.94
2018-03-08T22:03:07.283Z,5.90
2018-03-08T22:05:36.079Z,5.93
2018-03-08T22:08:04.169Z,5.98
2018-03-08T22:10:32.282Z,5.90
2018-03-08T22:13:00.395Z,5.99
2018-03-08T22:15:28.563Z,5.93
2018-03-08T22:17:56.706Z,5.94
2018-03-08T22:20:24.885Z,5.95
2018-03-08T22:22:53.005Z,5.96
2018-03-08T22:25:21.109Z,5.86
2018-03-08T22:27:49.225Z,5.87
2018-03-08T22:30:17.382Z,5.91
2018-03-08T22:32:45.468Z,5.98
2018-03-08T22:35:13.572Z,5.97
2018-03-08T22:37:41.691Z,5.91
2018-03-08T22:40:09.787Z,5.88
2018-03-08T22:42:38.113Z,5.86
2018-03-08T22:45:06.269Z,6.04
2018-03-08T22:47:34.471Z,5.82
2018-03-08T22:50:05.973Z,5.92
2018-03-08T22:52:34.083Z,5.86
2018-03-08T22:55:02.215Z,5.89
2018-03-08T22:57:30.319Z,5.85
2018-03-08T22:59:58.449Z,5.71
2018-03-08T23:02:32.099Z,5.80
2018-03-08T23:05:00.214Z,5.72
2018-03-08T23:07:28.377Z,5.75
2018-03-08T23:09:56.546Z,5.79
2018-03-08T23:12:28.461Z,5.77
2018-03-08T23:14:56.559Z,5.73
2018-03-08T23:17:24.744Z,5.75
2018-03-08T23:19:52.860Z,5.75
2018-03-08T23:22:21.137Z,5.74
2018-03-08T23:24:49.281Z,5.82
2018-03-08T23:27:17.426Z,5.71
2018-03-08T23:29:45.521Z,5.79
2018-03-08T23:32:13.639Z,5.69
2018-03-08T23:34:41.775Z,5.68
2018-03-08T23:37:09.868Z,5.74
2018-03-08T23:39:37.984Z,5.78
2018-03-08T23:42:06.113Z,5.73
2018-03-08T23:44:34.243Z,5.74
2018-03-08T23:47:02.387Z,5.64
2018-03-08T23:49:30.515Z,5.66
2018-03-08T23:51:58.661Z,5.71
2018-03-08T23:54:30.019Z,5.82
2018-03-08T23:56:58.117Z,5.71
2018-03-08T23:59:26.391Z,5.69
